Time,TemperatureF,DewpointF,PressureIn,WindDirection,WindDirectionDegrees,WindSpeedMPH,WindSpeedGustMPH,Humidity,HourlyPrecipIn,Conditions,Clouds,dailyrainin,SoftwareType,DateUTC
2013-04-08 00:06:00,53.4,47.1,29.73,North,0,0.0,-999.0,79,0.00,,,0.00,open2300 v1.10,2013-04-08 07:06:00,
2013-04-08 00:21:00,52.0,45.0,29.73,North,0,0.0,-999.0,77,0.00,,,0.00,open2300 v1.10,2013-04-08 07:21:00,
2013-04-08 00:36:00,51.3,43.6,29.74,North,0,0.0,-999.0,75,0.00,,,0.00,open2300 v1.10,2013-04-08 07:36:00,
2013-04-08 00:51:00,50.7,42.7,29.74,North,0,0.0,-999.0,74,0.00,,,0.00,open2300 v1.10,2013-04-08 07:51:00,
2013-04-08 01:07:00,50.7,43.1,29.73,North,0,0.0,-999.0,75,0.00,,,0.00,open2300 v1.10,2013-04-08 08:07:00,
2013-04-08 01:21:00,50.4,42.4,29.74,North,0,0.0,-999.0,74,0.00,,,0.00,open2300 v1.10,2013-04-08 08:21:00,
2013-04-08 01:36:00,50.2,42.2,29.72,North,0,0.0,-999.0,74,0.00,,,0.00,open2300 v1.10,2013-04-08 08:36:00,
2013-04-08 01:51:00,50.2,41.8,29.71,North,0,0.0,-999.0,73,0.00,,,0.00,open2300 v1.10,2013-04-08 08:51:00,
2013-04-08 02:07:00,49.8,41.1,29.69,North,0,0.0,-999.0,72,0.00,,,0.00,open2300 v1.10,2013-04-08 09:07:00,
2013-04-08 02:21:00,49.3,40.6,29.71,North,0,0.0,-999.0,72,0.00,,,0.00,open2300 v1.10,2013-04-08 09:21:00,
2013-04-08 02:36:00,49.3,40.3,29.69,North,0,0.0,-999.0,71,0.00,,,0.00,open2300 v1.10,2013-04-08 09:36:00,
2013-04-08 02:51:00,49.3,40.3,29.70,North,0,0.0,-999.0,71,0.00,,,0.00,open2300 v1.10,2013-04-08 09:51:00,
2013-04-08 03:07:00,49.1,40.1,29.71,North,0,0.0,-999.0,71,0.00,,,0.00,open2300 v1.10,2013-04-08 10:07:00,
2013-04-08 03:21:00,49.1,40.1,29.69,North,0,0.0,-999.0,71,0.00,,,0.00,open2300 v1.10,2013-04-08 10:21:00,
2013-04-08 03:36:00,49.1,40.1,29.70,North,0,0.0,-999.0,71,0.00,,,0.00,open2300 v1.10,2013-04-08 10:36:00,
2013-04-08 03:51:00,48.9,39.9,29.72,North,0,0.0,-999.0,71,0.00,,,0.00,open2300 v1.10,2013-04-08 10:51:00,
2013-04-08 04:07:00,48.9,39.9,29.74,North,0,0.0,-999.0,71,0.00,,,0.00,open2300 v1.10,2013-04-08 11:07:00,
2013-04-08 04:21:00,48.9,39.9,29.74,North,0,0.0,-999.0,71,0.00,,,0.00,open2300 v1.10,2013-04-08 11:21:00,
2013-04-08 04:36:00,49.1,39.7,29.75,North,0,0.0,-999.0,70,0.00,,,0.00,open2300 v1.10,2013-04-08 11:36:00,
2013-04-08 04:51:00,49.1,39.0,29.75,North,0,0.0,-999.0,68,0.00,,,0.00,open2300 v1.10,2013-04-08 11:51:00,
2013-04-08 05:07:00,49.1,38.6,29.75,North,0,0.0,-999.0,67,0.00,,,0.00,open2300 v1.10,2013-04-08 12:07:00,
2013-04-08 05:21:00,49.1,37.8,29.75,North,0,0.0,-999.0,65,0.00,,,0.00,open2300 v1.10,2013-04-08 12:21:00,
2013-04-08 05:36:00,49.1,37.8,29.75,North,0,0.0,-999.0,65,0.00,,,0.00,open2300 v1.10,2013-04-08 12:36:00,
2013-04-08 05:51:00,49.1,37.4,29.75,North,0,0.0,-999.0,64,0.00,,,0.00,open2300 v1.10,2013-04-08 12:51:00,
2013-04-08 06:07:00,49.1,37.0,29.76,North,0,0.0,-999.0,63,0.00,,,0.00,open2300 v1.10,2013-04-08 13:07:00,
2013-04-08 06:21:00,49.1,36.6,29.77,North,0,0.0,-999.0,62,0.00,,,0.00,open2300 v1.10,2013-04-08 13:21:00,
2013-04-08 06:36:00,49.1,36.6,29.77,North,0,0.0,-999.0,62,0.00,,,0.00,open2300 v1.10,2013-04-08 13:36:00,
2013-04-08 06:51:00,48.9,36.5,29.78,North,0,0.0,-999.0,62,0.00,,,0.00,open2300 v1.10,2013-04-08 13:51:00,
2013-04-08 07:07:00,48.9,36.5,29.79,North,0,0.0,-999.0,62,0.00,,,0.00,open2300 v1.10,2013-04-08 14:07:00,
2013-04-08 07:21:00,48.9,35.7,29.80,North,0,0.0,-999.0,60,0.00,,,0.00,open2300 v1.10,2013-04-08 14:21:00,
2013-04-08 07:36:00,48.9,35.7,29.80,North,0,0.0,-999.0,60,0.00,,,0.00,open2300 v1.10,2013-04-08 14:36:00,
2013-04-08 07:51:00,49.1,35.4,29.81,North,0,0.0,-999.0,59,0.00,,,0.00,open2300 v1.10,2013-04-08 14:51:00,
2013-04-08 08:06:00,49.3,35.1,29.82,North,0,0.0,-999.0,58,0.00,,,0.00,open2300 v1.10,2013-04-08 15:06:00,
2013-04-08 08:21:00,49.6,35.0,29.82,North,0,0.0,-999.0,57,0.00,,,0.00,open2300 v1.10,2013-04-08 15:21:00,
2013-04-08 08:36:00,49.8,35.2,29.81,North,0,0.0,-999.0,57,0.00,,,0.00,open2300 v1.10,2013-04-08 15:36:00,
2013-04-08 08:51:00,50.4,35.2,29.81,North,0,0.0,-999.0,56,0.00,,,0.00,open2300 v1.10,2013-04-08 15:51:00,
2013-04-08 09:06:00,50.7,35.5,29.81,North,0,0.0,-999.0,56,0.00,,,0.00,open2300 v1.10,2013-04-08 16:06:00,
2013-04-08 09:21:00,51.1,35.4,29.82,North,0,0.0,-999.0,55,0.00,,,0.00,open2300 v1.10,2013-04-08 16:21:00,
2013-04-08 09:36:00,51.4,35.7,29.82,North,0,0.0,-999.0,55,0.00,,,0.00,open2300 v1.10,2013-04-08 16:36:00,
2013-04-08 09:51:00,51.6,35.9,29.81,North,0,0.0,-999.0,55,0.00,,,0.00,open2300 v1.10,2013-04-08 16:51:00,
2013-04-08 10:06:00,52.3,36.1,29.81,North,0,0.0,-999.0,54,0.00,,,0.00,open2300 v1.10,2013-04-08 17:06:00,
2013-04-08 10:21:00,52.9,35.7,29.82,North,0,0.0,-999.0,52,0.00,,,0.00,open2300 v1.10,2013-04-08 17:21:00,
2013-04-08 10:36:00,53.4,35.7,29.83,North,0,0.0,-999.0,51,0.00,,,0.00,open2300 v1.10,2013-04-08 17:36:00,
2013-04-08 10:51:00,54.3,36.1,29.82,North,0,0.0,-999.0,50,0.00,,,0.00,open2300 v1.10,2013-04-08 17:51:00,
2013-04-08 11:06:00,55.0,34.5,29.83,North,0,0.0,-999.0,46,0.00,,,0.00,open2300 v1.10,2013-04-08 18:06:00,
2013-04-08 11:21:00,55.6,35.0,29.84,North,0,0.0,-999.0,46,0.00,,,0.00,open2300 v1.10,2013-04-08 18:21:00,
2013-04-08 11:36:00,56.1,34.9,29.84,North,0,0.0,-999.0,45,0.00,,,0.00,open2300 v1.10,2013-04-08 18:36:00,
2013-04-08 11:51:00,56.8,35.0,29.83,North,0,0.0,-999.0,44,0.00,,,0.00,open2300 v1.10,2013-04-08 18:51:00,
2013-04-08 12:06:00,57.0,34.6,29.83,North,0,0.0,-999.0,43,0.00,,,0.00,open2300 v1.10,2013-04-08 19:06:00,
2013-04-08 12:21:00,57.7,35.3,29.83,North,0,0.0,-999.0,43,0.00,,,0.00,open2300 v1.10,2013-04-08 19:21:00,
2013-04-08 12:36:00,58.3,35.8,29.83,North,0,0.0,-999.0,43,0.00,,,0.00,open2300 v1.10,2013-04-08 19:36:00,
2013-04-08 12:52:00,58.6,37.8,29.83,North,0,0.0,-999.0,46,0.00,,,0.00,open2300 v1.10,2013-04-08 19:52:00,
2013-04-08 13:06:00,58.8,38.0,29.83,North,0,0.0,-999.0,46,0.00,,,0.00,open2300 v1.10,2013-04-08 20:06:00,
2013-04-08 13:21:00,58.6,39.6,29.82,North,0,0.0,-999.0,49,0.00,,,0.00,open2300 v1.10,2013-04-08 20:21:00,
2013-04-08 13:36:00,58.6,40.1,29.82,North,0,0.0,-999.0,50,0.00,,,0.00,open2300 v1.10,2013-04-08 20:36:00,
2013-04-08 13:51:00,58.8,40.8,29.82,North,0,0.0,-999.0,51,0.00,,,0.00,open2300 v1.10,2013-04-08 20:51:00,
2013-04-08 14:06:00,58.8,41.2,29.82,North,0,0.0,-999.0,52,0.00,,,0.00,open2300 v1.10,2013-04-08 21:06:00,
2013-04-08 14:21:00,59.5,41.9,29.81,North,0,0.0,-999.0,52,0.00,,,0.00,open2300 v1.10,2013-04-08 21:21:00,
2013-04-08 14:37:00,59.5,41.9,29.81,North,0,0.0,-999.0,52,0.00,,,0.00,open2300 v1.10,2013-04-08 21:37:00,
2013-04-08 14:51:00,59.5,42.8,29.81,North,0,0.0,-999.0,54,0.00,,,0.00,open2300 v1.10,2013-04-08 21:51:00,
2013-04-08 15:06:00,59.5,43.3,29.81,North,0,0.0,-999.0,55,0.00,,,0.00,open2300 v1.10,2013-04-08 22:06:00,
2013-04-08 15:21:00,59.4,43.1,29.81,North,0,0.0,-999.0,55,0.00,,,0.00,open2300 v1.10,2013-04-08 22:21:00,
2013-04-08 15:36:00,59.5,43.3,29.80,North,0,0.0,-999.0,55,0.00,,,0.00,open2300 v1.10,2013-04-08 22:36:00,
2013-04-08 15:51:00,59.7,43.0,29.81,North,0,0.0,-999.0,54,0.00,,,0.00,open2300 v1.10,2013-04-08 22:51:00,
2013-04-08 16:06:00,60.1,43.8,29.80,North,0,0.0,-999.0,55,0.00,,,0.00,open2300 v1.10,2013-04-08 23:06:00,
2013-04-08 16:22:00,60.1,43.8,29.80,North,0,0.0,-999.0,55,0.00,,,0.00,open2300 v1.10,2013-04-08 23:22:00,
2013-04-08 16:36:00,60.6,44.3,29.80,North,0,0.0,-999.0,55,0.00,,,0.00,open2300 v1.10,2013-04-08 23:36:00,
2013-04-08 16:51:00,61.3,45.0,29.80,North,0,0.0,-999.0,55,0.00,,,0.00,open2300 v1.10,2013-04-08 23:51:00,
2013-04-08 17:06:00,61.2,44.8,29.81,North,0,0.0,-999.0,55,0.00,,,0.00,open2300 v1.10,2013-04-09 00:06:00,
2013-04-08 17:21:00,61.5,45.2,29.81,North,0,0.0,-999.0,55,0.00,,,0.00,open2300 v1.10,2013-04-09 00:21:00,
2013-04-08 17:36:00,61.7,45.3,29.81,North,0,0.0,-999.0,55,0.00,,,0.00,open2300 v1.10,2013-04-09 00:36:00,
2013-04-08 17:51:00,62.1,45.2,29.81,North,0,0.0,-999.0,54,0.00,,,0.00,open2300 v1.10,2013-04-09 00:51:00,
2013-04-08 18:06:00,62.2,44.8,29.81,North,0,0.0,-999.0,53,0.00,,,0.00,open2300 v1.10,2013-04-09 01:06:00,
2013-04-08 18:21:00,62.4,44.5,29.83,North,0,0.0,-999.0,52,0.00,,,0.00,open2300 v1.10,2013-04-09 01:21:00,
2013-04-08 18:36:00,61.7,43.9,29.83,North,0,0.0,-999.0,52,0.00,,,0.00,open2300 v1.10,2013-04-09 01:36:00,
2013-04-08 18:51:00,61.0,43.7,29.84,North,0,0.0,-999.0,53,0.00,,,0.00,open2300 v1.10,2013-04-09 01:51:00,
2013-04-08 19:07:00,60.4,44.2,29.84,North,0,0.0,-999.0,55,0.00,,,0.00,open2300 v1.10,2013-04-09 02:07:00,
2013-04-08 19:22:00,59.5,44.3,29.83,North,0,0.0,-999.0,57,0.00,,,0.00,open2300 v1.10,2013-04-09 02:22:00,
2013-04-08 19:36:00,58.1,42.9,29.83,North,0,0.0,-999.0,57,0.00,,,0.00,open2300 v1.10,2013-04-09 02:36:00,
2013-04-08 19:51:00,57.0,42.9,29.84,North,0,0.0,-999.0,59,0.00,,,0.00,open2300 v1.10,2013-04-09 02:51:00,
2013-04-08 20:06:00,56.5,42.3,29.84,North,0,0.0,-999.0,59,0.00,,,0.00,open2300 v1.10,2013-04-09 03:06:00,
2013-04-08 20:21:00,56.3,42.6,29.84,North,0,0.0,-999.0,60,0.00,,,0.00,open2300 v1.10,2013-04-09 03:21:00,
2013-04-08 20:36:00,55.9,42.7,29.85,North,0,0.0,-999.0,61,0.00,,,0.00,open2300 v1.10,2013-04-09 03:36:00,
2013-04-08 20:51:00,55.9,42.7,29.86,North,0,0.0,-999.0,61,0.00,,,0.00,open2300 v1.10,2013-04-09 03:51:00,
2013-04-08 21:06:00,56.1,42.4,29.86,North,0,0.0,-999.0,60,0.00,,,0.00,open2300 v1.10,2013-04-09 04:06:00,
2013-04-08 21:21:00,56.1,42.8,29.87,North,0,0.0,-999.0,61,0.00,,,0.00,open2300 v1.10,2013-04-09 04:21:00,
2013-04-08 21:36:00,55.9,42.7,29.87,North,0,0.0,-999.0,61,0.00,,,0.00,open2300 v1.10,2013-04-09 04:36:00,
2013-04-08 21:51:00,56.3,41.7,29.88,North,0,0.0,-999.0,58,0.00,,,0.00,open2300 v1.10,2013-04-09 04:51:00,
2013-04-08 22:06:00,56.7,41.1,29.88,North,0,0.0,-999.0,56,0.00,,,0.00,open2300 v1.10,2013-04-09 05:06:00,
2013-04-08 22:21:00,56.5,40.9,29.88,North,0,0.0,-999.0,56,0.00,,,0.00,open2300 v1.10,2013-04-09 05:21:00,
2013-04-08 22:36:00,56.3,41.2,29.89,North,0,0.0,-999.0,57,0.00,,,0.00,open2300 v1.10,2013-04-09 05:36:00,
2013-04-08 22:51:00,56.3,41.2,29.89,North,0,0.0,-999.0,57,0.00,,,0.00,open2300 v1.10,2013-04-09 05:51:00,
2013-04-08 23:06:00,56.1,41.0,29.89,North,0,0.0,-999.0,57,0.00,,,0.00,open2300 v1.10,2013-04-09 06:06:00,
2013-04-08 23:21:00,56.1,41.5,29.89,North,0,0.0,-999.0,58,0.00,,,0.00,open2300 v1.10,2013-04-09 06:21:00,
2013-04-08 23:36:00,55.9,41.3,29.89,North,0,0.0,-999.0,58,0.00,,,0.00,open2300 v1.10,2013-04-09 06:36:00,
2013-04-08 23:51:00,55.9,41.3,29.90,North,0,0.0,-999.0,58,0.00,,,0.00,open2300 v1.10,2013-04-09 06:51:00,